sensor_id;sensor_type;location;lat;lon;timestamp;pressure;altitude;pressure_sealevel;temperature;humidity
62789;BME280;66401;42.016;21.454;2023-03-16T00:02:10;97539.47;;;7.49;68.62
62789;BME280;66401;42.016;21.454;2023-03-16T00:04:36;97517.41;;;7.25;68.59
62789;BME280;66401;42.016;21.454;2023-03-16T00:07:04;97551.88;;;7.53;69.66
62789;BME280;66401;42.016;21.454;2023-03-16T00:09:30;97559.41;;;7.48;69.23
62789;BME280;66401;42.016;21.454;2023-03-16T00:11:59;97566.19;;;7.49;69.10
62789;BME280;66401;42.016;21.454;2023-03-16T00:14:28;97570.09;;;7.38;69.99
62789;BME280;66401;42.016;21.454;2023-03-16T00:16:54;97574.50;;;7.38;70.15
62789;BME280;66401;42.016;21.454;2023-03-16T00:19:20;97575.16;;;7.46;69.25
62789;BME280;66401;42.016;21.454;2023-03-16T00:21:49;97583.13;;;7.45;69.63
62789;BME280;66401;42.016;21.454;2023-03-16T00:24:16;97571.50;;;7.41;68.89
62789;BME280;66401;42.016;21.454;2023-03-16T00:26:43;97571.38;;;7.49;69.26
62789;BME280;66401;42.016;21.454;2023-03-16T00:29:09;97571.63;;;7.54;68.79
62789;BME280;66401;42.016;21.454;2023-03-16T00:31:40;97564.66;;;7.33;68.54
62789;BME280;66401;42.016;21.454;2023-03-16T00:34:09;97584.84;;;7.38;69.35
62789;BME280;66401;42.016;21.454;2023-03-16T00:36:35;97581.66;;;7.36;69.15
62789;BME280;66401;42.016;21.454;2023-03-16T00:39:05;97593.09;;;7.48;69.04
62789;BME280;66401;42.016;21.454;2023-03-16T00:41:31;97589.66;;;7.41;68.10
62789;BME280;66401;42.016;21.454;2023-03-16T00:44:05;97586.84;;;7.36;66.48
62789;BME280;66401;42.016;21.454;2023-03-16T00:46:31;97593.16;;;7.33;64.86
62789;BME280;66401;42.016;21.454;2023-03-16T00:48:56;97581.81;;;7.06;63.43
62789;BME280;66401;42.016;21.454;2023-03-16T00:51:22;97591.38;;;7.06;63.44
62789;BME280;66401;42.016;21.454;2023-03-16T00:53:48;97601.88;;;7.04;63.63
62789;BME280;66401;42.016;21.454;2023-03-16T00:56:14;97582.53;;;7.00;63.26
62789;BME280;66401;42.016;21.454;2023-03-16T00:58:41;97592.78;;;7.08;62.70
62789;BME280;66401;42.016;21.454;2023-03-16T01:01:18;97580.13;;;6.99;62.64
62789;BME280;66401;42.016;21.454;2023-03-16T01:03:44;97591.09;;;7.01;61.61
62789;BME280;66401;42.016;21.454;2023-03-16T01:06:12;97592.03;;;6.93;62.08
62789;BME280;66401;42.016;21.454;2023-03-16T01:08:40;97595.88;;;6.97;62.34
62789;BME280;66401;42.016;21.454;2023-03-16T01:11:11;97587.22;;;6.90;62.70
62789;BME280;66401;42.016;21.454;2023-03-16T01:13:38;97585.13;;;6.79;62.56
62789;BME280;66401;42.016;21.454;2023-03-16T01:16:04;97592.28;;;6.77;62.38
62789;BME280;66401;42.016;21.454;2023-03-16T01:18:30;97583.16;;;6.81;61.94
62789;BME280;66401;42.016;21.454;2023-03-16T01:21:00;97585.25;;;6.71;61.69
62789;BME280;66401;42.016;21.454;2023-03-16T01:23:27;97602.97;;;6.74;62.58
62789;BME280;66401;42.016;21.454;2023-03-16T01:25:54;97600.47;;;6.80;61.74
62789;BME280;66401;42.016;21.454;2023-03-16T01:28:22;97605.84;;;6.79;62.06
62789;BME280;66401;42.016;21.454;2023-03-16T01:30:53;97607.94;;;6.90;60.90
62789;BME280;66401;42.016;21.454;2023-03-16T01:33:26;97616.69;;;6.89;61.56
62789;BME280;66401;42.016;21.454;2023-03-16T01:35:57;97619.50;;;6.94;61.56
62789;BME280;66401;42.016;21.454;2023-03-16T01:38:23;97604.25;;;6.78;60.75
62789;BME280;66401;42.016;21.454;2023-03-16T01:40:50;97622.28;;;6.93;61.79
62789;BME280;66401;42.016;21.454;2023-03-16T01:43:17;97597.81;;;6.74;61.39
62789;BME280;66401;42.016;21.454;2023-03-16T01:48:32;97600.78;;;6.71;61.62
62789;BME280;66401;42.016;21.454;2023-03-16T01:51:03;97611.69;;;6.66;60.99
62789;BME280;66401;42.016;21.454;2023-03-16T01:53:28;97619.97;;;6.62;61.99
62789;BME280;66401;42.016;21.454;2023-03-16T01:55:54;97627.44;;;6.71;60.83
62789;BME280;66401;42.016;21.454;2023-03-16T01:58:20;97626.22;;;6.67;61.22
62789;BME280;66401;42.016;21.454;2023-03-16T02:00:45;97642.78;;;6.73;61.63
62789;BME280;66401;42.016;21.454;2023-03-16T02:03:14;97635.03;;;6.73;60.62
62789;BME280;66401;42.016;21.454;2023-03-16T02:05:43;97636.00;;;6.72;61.38
62789;BME280;66401;42.016;21.454;2023-03-16T02:08:12;97643.78;;;6.72;59.99
62789;BME280;66401;42.016;21.454;2023-03-16T02:10:39;97634.78;;;6.68;61.26
62789;BME280;66401;42.016;21.454;2023-03-16T02:13:05;97652.06;;;6.82;62.11
62789;BME280;66401;42.016;21.454;2023-03-16T02:15:31;97655.25;;;6.84;64.59
62789;BME280;66401;42.016;21.454;2023-03-16T02:17:57;97654.03;;;6.80;64.60
62789;BME280;66401;42.016;21.454;2023-03-16T02:21:08;97665.50;;;6.92;66.04
62789;BME280;66401;42.016;21.454;2023-03-16T02:23:36;97653.66;;;6.83;65.89
62789;BME280;66401;42.016;21.454;2023-03-16T02:28:58;97677.72;;;6.98;65.76
62789;BME280;66401;42.016;21.454;2023-03-16T02:31:27;97680.94;;;7.00;65.81
62789;BME280;66401;42.016;21.454;2023-03-16T02:33:53;97680.78;;;6.87;66.64
62789;BME280;66401;42.016;21.454;2023-03-16T02:36:19;97687.19;;;6.91;65.04
62789;BME280;66401;42.016;21.454;2023-03-16T02:38:45;97689.66;;;6.78;61.34
62789;BME280;66401;42.016;21.454;2023-03-16T02:41:13;97694.56;;;6.73;61.65
62789;BME280;66401;42.016;21.454;2023-03-16T02:43:44;97682.34;;;6.52;60.91
62789;BME280;66401;42.016;21.454;2023-03-16T02:46:12;97684.75;;;6.53;60.15
62789;BME280;66401;42.016;21.454;2023-03-16T02:49:07;97701.44;;;6.66;60.69
62789;BME280;66401;42.016;21.454;2023-03-16T02:51:35;97679.06;;;6.43;59.81
62789;BME280;66401;42.016;21.454;2023-03-16T02:54:01;97698.97;;;6.57;60.17
62789;BME280;66401;42.016;21.454;2023-03-16T02:56:27;97704.00;;;6.66;60.89
62789;BME280;66401;42.016;21.454;2023-03-16T02:58:53;97697.50;;;6.70;60.22
62789;BME280;66401;42.016;21.454;2023-03-16T03:01:19;97702.88;;;6.68;59.49
62789;BME280;66401;42.016;21.454;2023-03-16T03:03:44;97695.63;;;6.64;59.80
62789;BME280;66401;42.016;21.454;2023-03-16T03:06:10;97700.34;;;6.75;58.76
62789;BME280;66401;42.016;21.454;2023-03-16T03:08:35;97705.97;;;6.78;57.67
62789;BME280;66401;42.016;21.454;2023-03-16T03:11:01;97708.09;;;6.75;57.46
62789;BME280;66401;42.016;21.454;2023-03-16T03:13:26;97713.28;;;6.75;57.29
62789;BME280;66401;42.016;21.454;2023-03-16T03:15:52;97720.91;;;6.76;56.92
62789;BME280;66401;42.016;21.454;2023-03-16T03:18:18;97713.31;;;6.60;55.21
62789;BME280;66401;42.016;21.454;2023-03-16T03:20:43;97720.53;;;6.65;55.80
62789;BME280;66401;42.016;21.454;2023-03-16T03:23:09;97717.06;;;6.57;56.88
62789;BME280;66401;42.016;21.454;2023-03-16T03:25:35;97723.84;;;6.58;56.20
62789;BME280;66401;42.016;21.454;2023-03-16T03:28:02;97736.16;;;6.56;56.11
62789;BME280;66401;42.016;21.454;2023-03-16T03:30:29;97729.91;;;6.51;57.26
62789;BME280;66401;42.016;21.454;2023-03-16T03:32:55;97736.50;;;6.53;57.77
62789;BME280;66401;42.016;21.454;2023-03-16T03:35:21;97747.03;;;6.52;57.23
62789;BME280;66401;42.016;21.454;2023-03-16T03:37:47;97753.72;;;6.46;57.84
62789;BME280;66401;42.016;21.454;2023-03-16T03:40:15;97750.94;;;6.33;57.76
62789;BME280;66401;42.016;21.454;2023-03-16T03:42:41;97754.59;;;6.24;58.70
62789;BME280;66401;42.016;21.454;2023-03-16T03:45:08;97757.53;;;6.21;58.19
62789;BME280;66401;42.016;21.454;2023-03-16T03:47:36;97750.03;;;6.26;57.84
62789;BME280;66401;42.016;21.454;2023-03-16T03:50:02;97763.97;;;6.25;57.83
62789;BME280;66401;42.016;21.454;2023-03-16T03:52:28;97758.72;;;6.18;58.86
62789;BME280;66401;42.016;21.454;2023-03-16T03:54:53;97769.69;;;6.35;58.32
62789;BME280;66401;42.016;21.454;2023-03-16T03:57:19;97767.53;;;6.24;58.26
62789;BME280;66401;42.016;21.454;2023-03-16T03:59:44;97776.81;;;6.18;58.56
62789;BME280;66401;42.016;21.454;2023-03-16T04:02:10;97777.94;;;6.16;58.26
62789;BME280;66401;42.016;21.454;2023-03-16T04:04:36;97782.78;;;6.19;58.62
62789;BME280;66401;42.016;21.454;2023-03-16T04:07:02;97778.84;;;6.08;59.12
62789;BME280;66401;42.016;21.454;2023-03-16T04:09:28;97792.38;;;6.10;58.81
62789;BME280;66401;42.016;21.454;2023-03-16T04:11:53;97780.78;;;6.06;58.59
62789;BME280;66401;42.016;21.454;2023-03-16T04:14:22;97776.19;;;5.93;58.88
62789;BME280;66401;42.016;21.454;2023-03-16T04:16:47;97794.22;;;6.01;59.01
62789;BME280;66401;42.016;21.454;2023-03-16T04:19:13;97796.19;;;5.99;59.36
62789;BME280;66401;42.016;21.454;2023-03-16T04:21:38;97796.88;;;5.93;60.68
62789;BME280;66401;42.016;21.454;2023-03-16T04:24:04;97793.97;;;5.88;59.30
62789;BME280;66401;42.016;21.454;2023-03-16T04:26:30;97801.44;;;5.83;60.30
62789;BME280;66401;42.016;21.454;2023-03-16T04:28:57;97808.66;;;5.88;59.89
62789;BME280;66401;42.016;21.454;2023-03-16T04:31:23;97797.25;;;5.82;60.31
62789;BME280;66401;42.016;21.454;2023-03-16T04:33:50;97815.91;;;6.00;60.00
62789;BME280;66401;42.016;21.454;2023-03-16T04:36:19;97829.63;;;6.01;58.56
62789;BME280;66401;42.016;21.454;2023-03-16T04:38:48;97816.06;;;5.99;58.38
62789;BME280;66401;42.016;21.454;2023-03-16T04:41:14;97823.66;;;6.00;57.94
62789;BME280;66401;42.016;21.454;2023-03-16T04:43:39;97821.75;;;5.94;58.55
62789;BME280;66401;42.016;21.454;2023-03-16T04:46:05;97825.94;;;5.95;57.43
62789;BME280;66401;42.016;21.454;2023-03-16T04:48:31;97824.53;;;5.85;58.49
62789;BME280;66401;42.016;21.454;2023-03-16T04:50:57;97811.25;;;5.88;59.13
62789;BME280;66401;42.016;21.454;2023-03-16T04:53:23;97806.63;;;5.83;54.82
62789;BME280;66401;42.016;21.454;2023-03-16T04:55:49;97831.63;;;5.91;55.51
62789;BME280;66401;42.016;21.454;2023-03-16T04:58:15;97840.75;;;6.01;56.79
62789;BME280;66401;42.016;21.454;2023-03-16T05:00:41;97824.69;;;5.91;56.38
62789;BME280;66401;42.016;21.454;2023-03-16T05:03:07;97828.69;;;5.94;56.60
62789;BME280;66401;42.016;21.454;2023-03-16T05:05:36;97831.78;;;5.89;56.87
62789;BME280;66401;42.016;21.454;2023-03-16T05:08:02;97836.47;;;5.86;57.98
62789;BME280;66401;42.016;21.454;2023-03-16T05:10:31;97839.22;;;5.92;59.02
62789;BME280;66401;42.016;21.454;2023-03-16T05:12:58;97839.41;;;5.83;58.50
62789;BME280;66401;42.016;21.454;2023-03-16T05:15:24;97845.75;;;5.80;59.40
62789;BME280;66401;42.016;21.454;2023-03-16T05:17:49;97836.03;;;5.82;59.57
62789;BME280;66401;42.016;21.454;2023-03-16T05:20:16;97852.78;;;5.86;59.86
62789;BME280;66401;42.016;21.454;2023-03-16T05:22:43;97851.19;;;5.85;58.72
62789;BME280;66401;42.016;21.454;2023-03-16T05:25:09;97843.19;;;5.72;58.33
62789;BME280;66401;42.016;21.454;2023-03-16T05:27:43;97846.09;;;5.69;56.31
62789;BME280;66401;42.016;21.454;2023-03-16T05:30:10;97850.59;;;5.75;55.31
62789;BME280;66401;42.016;21.454;2023-03-16T05:32:36;97858.66;;;5.80;55.07
62789;BME280;66401;42.016;21.454;2023-03-16T05:35:02;97861.50;;;5.85;56.96
62789;BME280;66401;42.016;21.454;2023-03-16T05:37:28;97862.81;;;5.89;56.76
62789;BME280;66401;42.016;21.454;2023-03-16T05:39:53;97864.72;;;5.87;57.76
62789;BME280;66401;42.016;21.454;2023-03-16T05:42:21;97872.81;;;5.92;57.36
62789;BME280;66401;42.016;21.454;2023-03-16T05:44:47;97879.25;;;5.88;55.73
62789;BME280;66401;42.016;21.454;2023-03-16T05:47:14;97880.84;;;5.97;56.64
62789;BME280;66401;42.016;21.454;2023-03-16T05:49:40;97874.78;;;5.90;57.63
62789;BME280;66401;42.016;21.454;2023-03-16T05:52:05;97870.78;;;5.80;56.50
62789;BME280;66401;42.016;21.454;2023-03-16T05:54:31;97892.19;;;5.88;57.30
62789;BME280;66401;42.016;21.454;2023-03-16T05:56:56;97894.63;;;5.90;56.78
62789;BME280;66401;42.016;21.454;2023-03-16T05:59:22;97894.44;;;5.99;57.16
62789;BME280;66401;42.016;21.454;2023-03-16T06:01:47;97893.91;;;6.04;56.90
62789;BME280;66401;42.016;21.454;2023-03-16T06:04:14;97900.34;;;6.08;56.05
62789;BME280;66401;42.016;21.454;2023-03-16T06:06:40;97905.66;;;6.07;55.73
62789;BME280;66401;42.016;21.454;2023-03-16T06:09:05;97925.91;;;6.03;54.49
62789;BME280;66401;42.016;21.454;2023-03-16T06:11:31;97913.50;;;5.98;53.20
62789;BME280;66401;42.016;21.454;2023-03-16T06:13:58;97915.38;;;6.05;54.59
62789;BME280;66401;42.016;21.454;2023-03-16T06:16:24;97912.81;;;6.05;55.33
62789;BME280;66401;42.016;21.454;2023-03-16T06:18:49;97940.38;;;6.12;56.39
62789;BME280;66401;42.016;21.454;2023-03-16T06:21:15;97947.75;;;6.23;55.05
62789;BME280;66401;42.016;21.454;2023-03-16T06:23:41;97914.53;;;6.12;52.90
62789;BME280;66401;42.016;21.454;2023-03-16T06:26:07;97955.81;;;6.28;52.12
62789;BME280;66401;42.016;21.454;2023-03-16T06:28:32;97954.31;;;6.34;50.96
62789;BME280;66401;42.016;21.454;2023-03-16T06:30:58;97959.59;;;6.41;54.14
62789;BME280;66401;42.016;21.454;2023-03-16T06:33:23;97964.47;;;6.36;54.83
62789;BME280;66401;42.016;21.454;2023-03-16T06:35:50;97961.66;;;6.45;54.47
62789;BME280;66401;42.016;21.454;2023-03-16T06:38:17;97970.63;;;6.35;54.54
62789;BME280;66401;42.016;21.454;2023-03-16T06:40:42;97977.59;;;6.34;55.13
62789;BME280;66401;42.016;21.454;2023-03-16T06:43:08;97959.13;;;6.14;55.68
62789;BME280;66401;42.016;21.454;2023-03-16T06:45:33;97973.38;;;6.10;55.65
62789;BME280;66401;42.016;21.454;2023-03-16T06:47:59;97982.81;;;6.26;56.60
62789;BME280;66401;42.016;21.454;2023-03-16T06:50:25;97992.81;;;6.29;55.30
62789;BME280;66401;42.016;21.454;2023-03-16T06:52:51;97999.69;;;6.37;56.22
62789;BME280;66401;42.016;21.454;2023-03-16T06:55:16;97996.91;;;6.46;55.84
62789;BME280;66401;42.016;21.454;2023-03-16T06:57:42;97998.81;;;6.52;55.89
62789;BME280;66401;42.016;21.454;2023-03-16T07:00:13;98004.91;;;6.59;55.47
62789;BME280;66401;42.016;21.454;2023-03-16T07:02:40;98009.91;;;6.61;55.56
62789;BME280;66401;42.016;21.454;2023-03-16T07:05:07;98012.25;;;6.71;56.75
62789;BME280;66401;42.016;21.454;2023-03-16T07:07:35;98000.66;;;6.67;54.84
62789;BME280;66401;42.016;21.454;2023-03-16T07:10:00;98011.91;;;6.74;55.22
62789;BME280;66401;42.016;21.454;2023-03-16T07:12:26;98008.00;;;6.78;54.46
62789;BME280;66401;42.016;21.454;2023-03-16T07:14:51;98017.66;;;6.84;54.66
62789;BME280;66401;42.016;21.454;2023-03-16T07:17:18;97988.78;;;6.72;53.98
62789;BME280;66401;42.016;21.454;2023-03-16T07:19:43;98020.19;;;6.92;55.68
62789;BME280;66401;42.016;21.454;2023-03-16T07:22:09;97999.25;;;6.79;55.68
62789;BME280;66401;42.016;21.454;2023-03-16T07:24:34;98011.09;;;6.96;55.98
62789;BME280;66401;42.016;21.454;2023-03-16T07:27:00;98009.81;;;6.92;54.47
62789;BME280;66401;42.016;21.454;2023-03-16T07:29:26;98026.28;;;6.99;52.90
62789;BME280;66401;42.016;21.454;2023-03-16T07:31:52;98020.53;;;6.89;53.51
62789;BME280;66401;42.016;21.454;2023-03-16T07:34:18;98026.41;;;7.06;54.87
62789;BME280;66401;42.016;21.454;2023-03-16T07:36:44;98030.22;;;7.10;54.59
62789;BME280;66401;42.016;21.454;2023-03-16T07:39:09;98036.84;;;7.12;55.66
62789;BME280;66401;42.016;21.454;2023-03-16T07:41:38;98040.38;;;7.34;55.21
62789;BME280;66401;42.016;21.454;2023-03-16T07:44:04;98028.13;;;7.43;54.61
62789;BME280;66401;42.016;21.454;2023-03-16T07:46:30;98039.97;;;7.75;53.78
62789;BME280;66401;42.016;21.454;2023-03-16T07:48:57;98034.97;;;7.73;53.64
62789;BME280;66401;42.016;21.454;2023-03-16T07:51:22;98060.06;;;7.88;53.03
62789;BME280;66401;42.016;21.454;2023-03-16T07:53:48;98053.03;;;7.82;51.12
62789;BME280;66401;42.016;21.454;2023-03-16T07:56:14;98037.91;;;7.70;52.59
62789;BME280;66401;42.016;21.454;2023-03-16T07:58:39;98041.47;;;7.69;53.88
62789;BME280;66401;42.016;21.454;2023-03-16T08:01:06;98047.72;;;7.90;52.89
62789;BME280;66401;42.016;21.454;2023-03-16T08:03:33;98041.94;;;8.02;51.50
62789;BME280;66401;42.016;21.454;2023-03-16T08:05:59;98035.03;;;7.95;52.35
62789;BME280;66401;42.016;21.454;2023-03-16T08:08:24;98047.63;;;7.98;52.72
62789;BME280;66401;42.016;21.454;2023-03-16T08:10:51;98062.66;;;7.88;52.40
62789;BME280;66401;42.016;21.454;2023-03-16T08:13:17;98022.09;;;7.65;52.28
62789;BME280;66401;42.016;21.454;2023-03-16T08:15:50;98052.66;;;7.85;50.45
62789;BME280;66401;42.016;21.454;2023-03-16T08:18:27;98060.44;;;7.85;48.78
62789;BME280;66401;42.016;21.454;2023-03-16T08:20:54;98065.09;;;8.04;50.19
62789;BME280;66401;42.016;21.454;2023-03-16T08:23:20;98061.03;;;8.16;49.48
62789;BME280;66401;42.016;21.454;2023-03-16T08:25:52;98048.78;;;8.25;49.35
62789;BME280;66401;42.016;21.454;2023-03-16T08:28:17;98053.69;;;8.35;48.33
62789;BME280;66401;42.016;21.454;2023-03-16T08:30:50;98041.97;;;8.39;45.95
62789;BME280;66401;42.016;21.454;2023-03-16T08:33:16;98054.63;;;8.48;46.33
62789;BME280;66401;42.016;21.454;2023-03-16T08:35:42;98053.75;;;8.77;46.92
62789;BME280;66401;42.016;21.454;2023-03-16T08:38:10;98056.59;;;9.04;45.94
62789;BME280;66401;42.016;21.454;2023-03-16T08:40:36;98054.00;;;9.04;44.89
62789;BME280;66401;42.016;21.454;2023-03-16T08:43:02;98062.66;;;8.89;44.12
62789;BME280;66401;42.016;21.454;2023-03-16T08:45:28;98046.31;;;8.74;44.96
62789;BME280;66401;42.016;21.454;2023-03-16T08:47:54;98056.22;;;8.85;44.76
62789;BME280;66401;42.016;21.454;2023-03-16T08:50:19;98040.00;;;9.05;44.27
62789;BME280;66401;42.016;21.454;2023-03-16T08:52:47;98052.16;;;8.98;43.84
62789;BME280;66401;42.016;21.454;2023-03-16T08:55:13;98044.38;;;8.98;43.67
62789;BME280;66401;42.016;21.454;2023-03-16T08:57:40;98059.81;;;9.34;44.11
62789;BME280;66401;42.016;21.454;2023-03-16T09:00:06;98068.81;;;9.31;43.58
62789;BME280;66401;42.016;21.454;2023-03-16T09:02:41;98071.81;;;9.35;43.75
62789;BME280;66401;42.016;21.454;2023-03-16T09:05:09;98077.75;;;9.01;44.20
62789;BME280;66401;42.016;21.454;2023-03-16T09:07:36;98069.81;;;8.87;44.54
62789;BME280;66401;42.016;21.454;2023-03-16T09:10:03;98078.56;;;8.80;43.79
62789;BME280;66401;42.016;21.454;2023-03-16T09:12:30;98076.19;;;8.85;45.53
62789;BME280;66401;42.016;21.454;2023-03-16T09:14:56;98086.88;;;8.75;44.85
62789;BME280;66401;42.016;21.454;2023-03-16T09:17:21;98075.50;;;8.55;44.83
62789;BME280;66401;42.016;21.454;2023-03-16T09:19:47;98085.66;;;8.71;46.01
62789;BME280;66401;42.016;21.454;2023-03-16T09:22:13;98082.06;;;8.72;45.90
62789;BME280;66401;42.016;21.454;2023-03-16T09:24:39;98079.25;;;8.88;46.27
62789;BME280;66401;42.016;21.454;2023-03-16T09:27:04;98076.94;;;8.79;44.53
62789;BME280;66401;42.016;21.454;2023-03-16T09:29:30;98071.16;;;8.98;44.99
62789;BME280;66401;42.016;21.454;2023-03-16T09:31:57;98082.06;;;9.15;44.15
62789;BME280;66401;42.016;21.454;2023-03-16T09:34:22;98086.41;;;9.08;44.47
62789;BME280;66401;42.016;21.454;2023-03-16T09:36:48;98084.22;;;9.33;44.66
62789;BME280;66401;42.016;21.454;2023-03-16T09:39:13;98089.03;;;9.64;43.69
62789;BME280;66401;42.016;21.454;2023-03-16T09:45:34;98087.00;;;9.87;44.38
62789;BME280;66401;42.016;21.454;2023-03-16T09:47:40;98093.53;;;10.11;42.77
62789;BME280;66401;42.016;21.454;2023-03-16T09:50:10;98093.75;;;10.57;42.17
62789;BME280;66401;42.016;21.454;2023-03-16T09:52:43;98089.84;;;11.08;43.78
62789;BME280;66401;42.016;21.454;2023-03-16T09:55:15;98090.25;;;11.38;40.95
62789;BME280;66401;42.016;21.454;2023-03-16T09:57:44;98095.47;;;11.11;40.19
62789;BME280;66401;42.016;21.454;2023-03-16T10:00:18;98096.25;;;11.18;40.92
62789;BME280;66401;42.016;21.454;2023-03-16T10:06:10;98091.44;;;11.75;41.01
62789;BME280;66401;42.016;21.454;2023-03-16T10:09:23;98093.28;;;11.88;40.90
62789;BME280;66401;42.016;21.454;2023-03-16T10:11:48;98092.44;;;11.67;40.35
62789;BME280;66401;42.016;21.454;2023-03-16T10:14:26;98097.88;;;11.53;40.72
62789;BME280;66401;42.016;21.454;2023-03-16T10:17:02;98095.03;;;11.94;39.49
62789;BME280;66401;42.016;21.454;2023-03-16T10:22:39;98101.28;;;11.93;39.17
62789;BME280;66401;42.016;21.454;2023-03-16T10:28:36;98098.47;;;11.15;40.53
62789;BME280;66401;42.016;21.454;2023-03-16T10:31:01;98098.47;;;11.08;40.62
62789;BME280;66401;42.016;21.454;2023-03-16T10:33:33;98103.84;;;12.06;40.27
62789;BME280;66401;42.016;21.454;2023-03-16T10:36:28;98096.00;;;12.64;38.15
62789;BME280;66401;42.016;21.454;2023-03-16T10:39:06;98111.84;;;12.76;38.96
62789;BME280;66401;42.016;21.454;2023-03-16T10:41:34;98103.56;;;12.79;38.45
62789;BME280;66401;42.016;21.454;2023-03-16T10:44:14;98106.00;;;12.36;37.55
62789;BME280;66401;42.016;21.454;2023-03-16T10:46:41;98106.06;;;12.09;38.70
62789;BME280;66401;42.016;21.454;2023-03-16T10:49:42;98117.13;;;11.71;38.34
62789;BME280;66401;42.016;21.454;2023-03-16T10:55:11;98098.44;;;10.95;40.13
62789;BME280;66401;42.016;21.454;2023-03-16T10:57:42;98107.84;;;10.83;40.20
62789;BME280;66401;42.016;21.454;2023-03-16T11:00:14;98118.06;;;10.23;41.89
62789;BME280;66401;42.016;21.454;2023-03-16T11:02:41;98116.00;;;10.19;43.44
62789;BME280;66401;42.016;21.454;2023-03-16T11:05:31;98124.41;;;10.21;42.08
62789;BME280;66401;42.016;21.454;2023-03-16T11:08:23;98122.94;;;10.12;42.02
62789;BME280;66401;42.016;21.454;2023-03-16T11:10:54;98127.47;;;9.96;42.36
62789;BME280;66401;42.016;21.454;2023-03-16T11:13:32;98124.97;;;9.82;43.81
62789;BME280;66401;42.016;21.454;2023-03-16T11:16:20;98116.00;;;9.56;43.86
62789;BME280;66401;42.016;21.454;2023-03-16T11:18:53;98127.88;;;9.65;44.02
62789;BME280;66401;42.016;21.454;2023-03-16T11:21:33;98101.09;;;9.43;44.48
62789;BME280;66401;42.016;21.454;2023-03-16T11:24:04;98127.56;;;9.54;44.20
62789;BME280;66401;42.016;21.454;2023-03-16T11:26:35;98122.91;;;9.21;42.96
62789;BME280;66401;42.016;21.454;2023-03-16T11:34:20;98116.91;;;9.21;45.26
62789;BME280;66401;42.016;21.454;2023-03-16T11:36:52;98120.19;;;9.29;44.28
62789;BME280;66401;42.016;21.454;2023-03-16T11:39:57;98121.41;;;9.33;44.66
62789;BME280;66401;42.016;21.454;2023-03-16T11:42:33;98120.50;;;9.20;43.85
62789;BME280;66401;42.016;21.454;2023-03-16T11:53:05;98103.75;;;8.65;44.33
62789;BME280;66401;42.016;21.454;2023-03-16T11:55:47;98104.03;;;8.55;44.73
62789;BME280;66401;42.016;21.454;2023-03-16T11:58:52;98093.03;;;8.53;46.02
62789;BME280;66401;42.016;21.454;2023-03-16T12:12:58;98129.41;;;8.74;48.06
62789;BME280;66401;42.016;21.454;2023-03-16T12:15:47;98123.63;;;8.72;48.91
62789;BME280;66401;42.016;21.454;2023-03-16T12:18:25;98122.63;;;8.73;47.33
62789;BME280;66401;42.016;21.454;2023-03-16T12:21:39;98117.41;;;8.52;47.44
62789;BME280;66401;42.016;21.454;2023-03-16T12:23:52;98125.25;;;8.58;47.23
62789;BME280;66401;42.016;21.454;2023-03-16T12:26:21;98122.50;;;8.60;47.95
62789;BME280;66401;42.016;21.454;2023-03-16T12:28:49;98126.34;;;8.49;47.57
62789;BME280;66401;42.016;21.454;2023-03-16T12:31:23;98112.31;;;8.44;48.38
62789;BME280;66401;42.016;21.454;2023-03-16T12:34:21;98121.06;;;8.43;49.48
62789;BME280;66401;42.016;21.454;2023-03-16T12:44:53;98120.72;;;8.46;45.60
62789;BME280;66401;42.016;21.454;2023-03-16T12:47:47;98109.28;;;8.40;45.61
62789;BME280;66401;42.016;21.454;2023-03-16T12:50:15;98132.97;;;8.52;45.31
62789;BME280;66401;42.016;21.454;2023-03-16T12:52:51;98136.47;;;8.44;45.57
62789;BME280;66401;42.016;21.454;2023-03-16T12:55:19;98134.44;;;8.40;44.64
62789;BME280;66401;42.016;21.454;2023-03-16T12:57:49;98145.03;;;8.59;45.25
62789;BME280;66401;42.016;21.454;2023-03-16T13:00:18;98155.16;;;8.69;45.12
62789;BME280;66401;42.016;21.454;2023-03-16T13:02:49;98153.22;;;8.78;45.26
62789;BME280;66401;42.016;21.454;2023-03-16T13:05:35;98156.16;;;8.89;44.81
62789;BME280;66401;42.016;21.454;2023-03-16T13:08:17;98153.50;;;9.04;45.51
62789;BME280;66401;42.016;21.454;2023-03-16T13:11:02;98148.00;;;8.93;45.74
62789;BME280;66401;42.016;21.454;2023-03-16T13:13:28;98164.94;;;8.88;45.86
62789;BME280;66401;42.016;21.454;2023-03-16T13:16:03;98157.97;;;8.74;46.40
62789;BME280;66401;42.016;21.454;2023-03-16T13:18:36;98162.84;;;8.63;46.57
62789;BME280;66401;42.016;21.454;2023-03-16T13:21:17;98165.00;;;8.59;47.00
62789;BME280;66401;42.016;21.454;2023-03-16T13:23:51;98157.38;;;8.57;45.61
62789;BME280;66401;42.016;21.454;2023-03-16T13:26:31;98158.84;;;8.45;45.24
62789;BME280;66401;42.016;21.454;2023-03-16T13:29:06;98162.69;;;8.35;44.15
62789;BME280;66401;42.016;21.454;2023-03-16T13:31:40;98165.72;;;8.23;45.05
62789;BME280;66401;42.016;21.454;2023-03-16T13:34:12;98160.25;;;8.33;45.26
62789;BME280;66401;42.016;21.454;2023-03-16T13:36:40;98164.03;;;8.45;45.59
62789;BME280;66401;42.016;21.454;2023-03-16T13:39:19;98175.75;;;8.56;46.99
62789;BME280;66401;42.016;21.454;2023-03-16T13:44:24;98184.09;;;8.51;47.49
62789;BME280;66401;42.016;21.454;2023-03-16T13:46:50;98179.16;;;8.42;49.05
62789;BME280;66401;42.016;21.454;2023-03-16T13:49:17;98180.16;;;8.41;50.23
62789;BME280;66401;42.016;21.454;2023-03-16T13:51:42;98181.38;;;8.30;50.23
62789;BME280;66401;42.016;21.454;2023-03-16T13:54:24;98175.03;;;8.32;50.15
62789;BME280;66401;42.016;21.454;2023-03-16T13:56:51;98184.97;;;8.44;49.06
62789;BME280;66401;42.016;21.454;2023-03-16T13:59:17;98197.50;;;8.55;49.85
62789;BME280;66401;42.016;21.454;2023-03-16T14:01:45;98202.06;;;8.53;50.80
62789;BME280;66401;42.016;21.454;2023-03-16T14:04:12;98200.78;;;8.49;50.18
62789;BME280;66401;42.016;21.454;2023-03-16T14:06:54;98210.47;;;8.55;50.88
62789;BME280;66401;42.016;21.454;2023-03-16T14:09:23;98193.13;;;8.41;49.31